sensor_id;sensor_type;location;lat;lon;timestamp;pressure;altitude;pressure_sealevel;temperature;humidity
57562;BME280;43397;51.530;5.974;2022-08-03T00:00:58;101185.84;;;21.44;99.78
57562;BME280;43397;51.530;5.974;2022-08-03T00:03:25;101180.75;;;21.36;100.00
57562;BME280;43397;51.530;5.974;2022-08-03T00:05:51;101177.34;;;21.32;100.00
57562;BME280;43397;51.530;5.974;2022-08-03T00:08:17;101182.97;;;21.28;100.00
57562;BME280;43397;51.530;5.974;2022-08-03T00:10:43;101179.69;;;21.21;100.00
57562;BME280;43397;51.530;5.974;2022-08-03T00:13:09;101179.91;;;21.16;100.00
57562;BME280;43397;51.530;5.974;2022-08-03T00:15:35;101168.63;;;21.26;100.00
57562;BME280;43397;51.530;5.974;2022-08-03T00:18:01;101171.84;;;21.15;100.00
57562;BME280;43397;51.530;5.974;2022-08-03T00:20:28;101166.44;;;21.15;100.00
57562;BME280;43397;51.530;5.974;2022-08-03T00:22:53;101165.56;;;20.95;100.00
57562;BME280;43397;51.530;5.974;2022-08-03T00:25:19;101158.38;;;20.94;100.00
57562;BME280;43397;51.530;5.974;2022-08-03T00:27:45;101166.13;;;20.83;100.00
57562;BME280;43397;51.530;5.974;2022-08-03T00:30:11;101156.75;;;20.90;100.00
57562;BME280;43397;51.530;5.974;2022-08-03T00:32:37;101166.97;;;20.84;100.00
57562;BME280;43397;51.530;5.974;2022-08-03T00:35:03;101157.28;;;20.80;100.00
57562;BME280;43397;51.530;5.974;2022-08-03T00:37:30;101159.56;;;20.89;100.00
57562;BME280;43397;51.530;5.974;2022-08-03T00:39:56;101160.22;;;20.94;100.00
57562;BME280;43397;51.530;5.974;2022-08-03T00:42:22;101155.63;;;20.96;100.00
57562;BME280;43397;51.530;5.974;2022-08-03T00:44:48;101158.31;;;20.96;100.00
57562;BME280;43397;51.530;5.974;2022-08-03T00:47:14;101160.81;;;21.01;100.00
57562;BME280;43397;51.530;5.974;2022-08-03T00:49:41;101151.25;;;20.93;100.00
57562;BME280;43397;51.530;5.974;2022-08-03T00:52:08;101148.66;;;20.90;100.00
57562;BME280;43397;51.530;5.974;2022-08-03T00:54:36;101150.72;;;20.85;100.00
57562;BME280;43397;51.530;5.974;2022-08-03T00:57:02;101155.19;;;20.86;100.00
57562;BME280;43397;51.530;5.974;2022-08-03T00:59:28;101152.75;;;20.80;100.00
57562;BME280;43397;51.530;5.974;2022-08-03T01:01:54;101149.91;;;20.83;100.00
57562;BME280;43397;51.530;5.974;2022-08-03T01:04:20;101145.25;;;20.87;100.00
57562;BME280;43397;51.530;5.974;2022-08-03T01:06:49;101144.50;;;20.83;100.00
57562;BME280;43397;51.530;5.974;2022-08-03T01:09:24;101137.75;;;20.73;100.00
57562;BME280;43397;51.530;5.974;2022-08-03T01:11:56;101139.81;;;20.68;100.00
57562;BME280;43397;51.530;5.974;2022-08-03T01:14:26;101151.75;;;20.83;100.00
57562;BME280;43397;51.530;5.974;2022-08-03T01:16:58;101141.91;;;20.61;100.00
57562;BME280;43397;51.530;5.974;2022-08-03T01:19:39;101137.47;;;20.60;100.00
57562;BME280;43397;51.530;5.974;2022-08-03T01:22:19;101135.44;;;20.65;100.00
57562;BME280;43397;51.530;5.974;2022-08-03T01:24:55;101134.25;;;20.50;100.00
57562;BME280;43397;51.530;5.974;2022-08-03T01:27:32;101137.22;;;20.44;100.00
57562;BME280;43397;51.530;5.974;2022-08-03T01:30:05;101137.50;;;20.38;100.00
57562;BME280;43397;51.530;5.974;2022-08-03T01:32:40;101132.09;;;20.38;100.00
57562;BME280;43397;51.530;5.974;2022-08-03T01:35:09;101135.00;;;20.33;100.00
57562;BME280;43397;51.530;5.974;2022-08-03T01:37:40;101140.50;;;20.32;100.00
57562;BME280;43397;51.530;5.974;2022-08-03T01:40:08;101139.28;;;20.19;100.00
57562;BME280;43397;51.530;5.974;2022-08-03T01:42:36;101135.97;;;20.32;100.00
57562;BME280;43397;51.530;5.974;2022-08-03T01:45:07;101142.19;;;20.34;100.00
57562;BME280;43397;51.530;5.974;2022-08-03T01:47:34;101135.09;;;20.32;100.00
57562;BME280;43397;51.530;5.974;2022-08-03T01:50:02;101131.38;;;20.34;100.00
57562;BME280;43397;51.530;5.974;2022-08-03T01:52:29;101129.56;;;20.35;100.00
57562;BME280;43397;51.530;5.974;2022-08-03T01:54:57;101129.75;;;20.30;100.00
57562;BME280;43397;51.530;5.974;2022-08-03T01:57:27;101133.47;;;20.28;100.00
57562;BME280;43397;51.530;5.974;2022-08-03T01:59:55;101129.41;;;20.18;100.00
57562;BME280;43397;51.530;5.974;2022-08-03T02:02:23;101123.63;;;20.06;100.00
57562;BME280;43397;51.530;5.974;2022-08-03T02:04:51;101128.34;;;20.01;100.00
57562;BME280;43397;51.530;5.974;2022-08-03T02:07:21;101129.22;;;20.02;100.00
57562;BME280;43397;51.530;5.974;2022-08-03T02:09:50;101122.88;;;20.03;100.00
57562;BME280;43397;51.530;5.974;2022-08-03T02:12:17;101126.53;;;20.02;100.00
57562;BME280;43397;51.530;5.974;2022-08-03T02:14:45;101119.75;;;20.12;100.00
57562;BME280;43397;51.530;5.974;2022-08-03T02:17:13;101126.72;;;20.18;100.00
57562;BME280;43397;51.530;5.974;2022-08-03T02:19:42;101118.56;;;20.19;100.00
57562;BME280;43397;51.530;5.974;2022-08-03T02:22:10;101124.78;;;20.21;100.00
57562;BME280;43397;51.530;5.974;2022-08-03T02:24:37;101126.25;;;20.28;100.00
57562;BME280;43397;51.530;5.974;2022-08-03T02:27:06;101122.19;;;20.18;100.00
57562;BME280;43397;51.530;5.974;2022-08-03T02:29:35;101128.00;;;20.09;100.00
57562;BME280;43397;51.530;5.974;2022-08-03T02:32:04;101115.72;;;20.02;100.00
57562;BME280;43397;51.530;5.974;2022-08-03T02:34:32;101117.63;;;20.00;100.00
57562;BME280;43397;51.530;5.974;2022-08-03T02:37:01;101119.44;;;19.99;100.00
57562;BME280;43397;51.530;5.974;2022-08-03T02:39:30;101119.75;;;20.12;100.00
57562;BME280;43397;51.530;5.974;2022-08-03T02:41:59;101116.81;;;20.18;100.00
57562;BME280;43397;51.530;5.974;2022-08-03T02:44:26;101119.50;;;19.98;100.00
57562;BME280;43397;51.530;5.974;2022-08-03T02:46:54;101117.69;;;19.98;100.00
57562;BME280;43397;51.530;5.974;2022-08-03T02:49:24;101113.59;;;19.88;100.00
57562;BME280;43397;51.530;5.974;2022-08-03T02:51:51;101121.09;;;19.81;100.00
57562;BME280;43397;51.530;5.974;2022-08-03T02:54:22;101114.41;;;19.69;100.00
57562;BME280;43397;51.530;5.974;2022-08-03T02:56:48;101117.97;;;19.70;100.00
57562;BME280;43397;51.530;5.974;2022-08-03T02:59:17;101113.44;;;19.70;100.00
57562;BME280;43397;51.530;5.974;2022-08-03T03:01:43;101109.81;;;19.71;100.00
57562;BME280;43397;51.530;5.974;2022-08-03T03:04:10;101115.88;;;19.77;100.00
57562;BME280;43397;51.530;5.974;2022-08-03T03:06:38;101110.44;;;19.78;100.00
57562;BME280;43397;51.530;5.974;2022-08-03T03:09:04;101102.56;;;19.73;100.00
57562;BME280;43397;51.530;5.974;2022-08-03T03:11:33;101101.59;;;19.75;100.00
57562;BME280;43397;51.530;5.974;2022-08-03T03:14:01;101102.81;;;19.66;100.00
57562;BME280;43397;51.530;5.974;2022-08-03T03:16:28;101103.63;;;19.68;100.00
57562;BME280;43397;51.530;5.974;2022-08-03T03:18:55;101107.94;;;19.73;100.00
57562;BME280;43397;51.530;5.974;2022-08-03T03:21:22;101107.34;;;19.65;100.00
57562;BME280;43397;51.530;5.974;2022-08-03T03:23:49;101111.13;;;19.61;100.00
57562;BME280;43397;51.530;5.974;2022-08-03T03:26:15;101113.63;;;19.66;100.00
57562;BME280;43397;51.530;5.974;2022-08-03T03:28:43;101106.53;;;19.63;100.00
57562;BME280;43397;51.530;5.974;2022-08-03T03:31:09;101105.63;;;19.64;100.00
57562;BME280;43397;51.530;5.974;2022-08-03T03:33:36;101104.78;;;19.84;100.00
57562;BME280;43397;51.530;5.974;2022-08-03T03:36:03;101098.59;;;20.03;100.00
57562;BME280;43397;51.530;5.974;2022-08-03T03:38:30;101104.13;;;20.20;100.00
57562;BME280;43397;51.530;5.974;2022-08-03T03:40:56;101106.41;;;20.09;100.00
57562;BME280;43397;51.530;5.974;2022-08-03T03:43:23;101108.44;;;20.04;100.00
57562;BME280;43397;51.530;5.974;2022-08-03T03:45:50;101107.75;;;19.78;100.00
57562;BME280;43397;51.530;5.974;2022-08-03T03:48:17;101107.13;;;19.71;100.00
57562;BME280;43397;51.530;5.974;2022-08-03T03:50:43;101105.41;;;19.69;100.00
57562;BME280;43397;51.530;5.974;2022-08-03T03:53:11;101110.91;;;19.66;100.00
57562;BME280;43397;51.530;5.974;2022-08-03T03:55:37;101108.81;;;19.52;100.00
57562;BME280;43397;51.530;5.974;2022-08-03T03:58:03;101110.53;;;19.53;100.00
57562;BME280;43397;51.530;5.974;2022-08-03T04:00:29;101105.28;;;19.50;100.00
57562;BME280;43397;51.530;5.974;2022-08-03T04:02:56;101112.72;;;19.45;100.00
57562;BME280;43397;51.530;5.974;2022-08-03T04:05:22;101108.28;;;19.42;100.00
57562;BME280;43397;51.530;5.974;2022-08-03T04:07:55;101110.25;;;19.39;100.00
57562;BME280;43397;51.530;5.974;2022-08-03T04:10:25;101106.06;;;19.31;100.00
57562;BME280;43397;51.530;5.974;2022-08-03T04:12:53;101109.72;;;19.29;100.00
57562;BME280;43397;51.530;5.974;2022-08-03T04:15:22;101111.50;;;19.30;100.00
57562;BME280;43397;51.530;5.974;2022-08-03T04:17:52;101109.00;;;19.47;100.00
57562;BME280;43397;51.530;5.974;2022-08-03T04:20:24;101110.09;;;19.64;100.00
57562;BME280;43397;51.530;5.974;2022-08-03T04:22:53;101117.09;;;19.69;100.00
57562;BME280;43397;51.530;5.974;2022-08-03T04:25:22;101115.22;;;19.71;100.00
57562;BME280;43397;51.530;5.974;2022-08-03T04:27:49;101113.97;;;19.36;100.00
57562;BME280;43397;51.530;5.974;2022-08-03T04:30:15;101110.44;;;19.34;100.00
57562;BME280;43397;51.530;5.974;2022-08-03T04:32:41;101112.00;;;19.18;100.00
57562;BME280;43397;51.530;5.974;2022-08-03T04:35:08;101109.94;;;19.24;100.00
57562;BME280;43397;51.530;5.974;2022-08-03T04:37:38;101118.16;;;19.21;100.00
57562;BME280;43397;51.530;5.974;2022-08-03T04:40:08;101116.28;;;19.23;100.00
57562;BME280;43397;51.530;5.974;2022-08-03T04:42:35;101129.94;;;19.41;100.00
57562;BME280;43397;51.530;5.974;2022-08-03T04:45:03;101122.78;;;19.40;100.00
57562;BME280;43397;51.530;5.974;2022-08-03T04:47:31;101126.72;;;19.53;100.00
57562;BME280;43397;51.530;5.974;2022-08-03T04:49:58;101117.09;;;19.47;100.00
57562;BME280;43397;51.530;5.974;2022-08-03T04:52:24;101116.94;;;19.50;100.00
57562;BME280;43397;51.530;5.974;2022-08-03T04:54:52;101122.72;;;19.63;100.00
57562;BME280;43397;51.530;5.974;2022-08-03T04:57:18;101117.56;;;19.57;100.00
57562;BME280;43397;51.530;5.974;2022-08-03T04:59:43;101123.78;;;19.59;100.00
57562;BME280;43397;51.530;5.974;2022-08-03T05:02:10;101125.75;;;19.78;100.00
57562;BME280;43397;51.530;5.974;2022-08-03T05:04:36;101125.75;;;19.78;100.00
57562;BME280;43397;51.530;5.974;2022-08-03T05:07:01;101128.78;;;19.68;100.00
57562;BME280;43397;51.530;5.974;2022-08-03T05:09:27;101129.06;;;19.62;100.00
57562;BME280;43397;51.530;5.974;2022-08-03T05:11:54;101124.53;;;19.63;100.00
57562;BME280;43397;51.530;5.974;2022-08-03T05:14:20;101124.66;;;19.60;100.00
57562;BME280;43397;51.530;5.974;2022-08-03T05:16:46;101125.66;;;19.57;100.00
57562;BME280;43397;51.530;5.974;2022-08-03T05:19:11;101129.94;;;19.63;100.00
57562;BME280;43397;51.530;5.974;2022-08-03T05:21:38;101133.41;;;19.66;100.00
57562;BME280;43397;51.530;5.974;2022-08-03T05:24:03;101128.56;;;19.75;100.00
57562;BME280;43397;51.530;5.974;2022-08-03T05:26:29;101144.38;;;19.84;100.00
57562;BME280;43397;51.530;5.974;2022-08-03T05:28:56;101135.19;;;19.88;100.00
57562;BME280;43397;51.530;5.974;2022-08-03T05:31:22;101137.06;;;19.86;100.00
57562;BME280;43397;51.530;5.974;2022-08-03T05:33:48;101144.09;;;19.90;100.00
57562;BME280;43397;51.530;5.974;2022-08-03T05:36:14;101138.44;;;19.96;100.00
57562;BME280;43397;51.530;5.974;2022-08-03T05:38:40;101139.94;;;20.03;100.00
57562;BME280;43397;51.530;5.974;2022-08-03T05:41:06;101144.41;;;20.04;100.00
57562;BME280;43397;51.530;5.974;2022-08-03T05:43:32;101141.44;;;20.10;100.00
57562;BME280;43397;51.530;5.974;2022-08-03T05:45:59;101136.09;;;20.09;100.00
57562;BME280;43397;51.530;5.974;2022-08-03T05:48:25;101144.84;;;20.14;100.00
57562;BME280;43397;51.530;5.974;2022-08-03T05:50:51;101142.72;;;20.22;100.00
57562;BME280;43397;51.530;5.974;2022-08-03T05:53:17;101143.25;;;20.30;100.00
57562;BME280;43397;51.530;5.974;2022-08-03T05:55:43;101145.34;;;20.44;100.00
57562;BME280;43397;51.530;5.974;2022-08-03T05:58:08;101139.66;;;20.50;100.00
57562;BME280;43397;51.530;5.974;2022-08-03T06:00:34;101141.28;;;20.54;100.00
57562;BME280;43397;51.530;5.974;2022-08-03T06:03:01;101141.91;;;20.61;100.00
57562;BME280;43397;51.530;5.974;2022-08-03T06:05:27;101146.44;;;20.61;100.00
57562;BME280;43397;51.530;5.974;2022-08-03T06:07:53;101148.28;;;20.60;100.00
57562;BME280;43397;51.530;5.974;2022-08-03T06:10:19;101152.81;;;20.79;100.00
57562;BME280;43397;51.530;5.974;2022-08-03T06:12:45;101151.00;;;20.79;100.00
57562;BME280;43397;51.530;5.974;2022-08-03T06:15:10;101158.88;;;20.84;100.00
57562;BME280;43397;51.530;5.974;2022-08-03T06:17:43;101154.16;;;20.89;100.00
57562;BME280;43397;51.530;5.974;2022-08-03T06:20:11;101148.88;;;20.86;100.00
57562;BME280;43397;51.530;5.974;2022-08-03T06:22:37;101158.53;;;20.91;100.00
57562;BME280;43397;51.530;5.974;2022-08-03T06:25:03;101157.50;;;20.94;100.00
57562;BME280;43397;51.530;5.974;2022-08-03T06:27:29;101150.00;;;21.01;100.00
57562;BME280;43397;51.530;5.974;2022-08-03T06:29:55;101156.88;;;21.08;100.00
57562;BME280;43397;51.530;5.974;2022-08-03T06:32:21;101160.75;;;21.21;100.00
57562;BME280;43397;51.530;5.974;2022-08-03T06:34:46;101162.19;;;21.28;100.00
57562;BME280;43397;51.530;5.974;2022-08-03T06:37:13;101162.78;;;21.35;100.00
57562;BME280;43397;51.530;5.974;2022-08-03T06:39:39;101169.22;;;21.32;100.00
57562;BME280;43397;51.530;5.974;2022-08-03T06:42:05;101165.41;;;21.36;100.00
57562;BME280;43397;51.530;5.974;2022-08-03T06:44:31;101167.47;;;21.50;99.88
57562;BME280;43397;51.530;5.974;2022-08-03T06:47:03;101171.63;;;21.57;100.00
57562;BME280;43397;51.530;5.974;2022-08-03T06:49:29;101160.00;;;21.55;100.00
57562;BME280;43397;51.530;5.974;2022-08-03T06:51:55;101163.06;;;21.67;99.57
57562;BME280;43397;51.530;5.974;2022-08-03T06:54:22;101161.50;;;21.80;97.76
57562;BME280;43397;51.530;5.974;2022-08-03T06:56:48;101155.78;;;21.86;97.32
57562;BME280;43397;51.530;5.974;2022-08-03T06:59:14;101167.50;;;21.87;97.88
57562;BME280;43397;51.530;5.974;2022-08-03T07:01:39;101167.25;;;21.91;94.78
57562;BME280;43397;51.530;5.974;2022-08-03T07:04:05;101162.41;;;21.98;95.15
57562;BME280;43397;51.530;5.974;2022-08-03T07:06:31;101159.53;;;22.01;94.05
57562;BME280;43397;51.530;5.974;2022-08-03T07:08:57;101168.00;;;22.12;93.82
57562;BME280;43397;51.530;5.974;2022-08-03T07:11:24;101167.75;;;22.17;92.18
57562;BME280;43397;51.530;5.974;2022-08-03T07:13:50;101172.94;;;22.22;89.86
57562;BME280;43397;51.530;5.974;2022-08-03T07:16:15;101179.47;;;22.35;87.63
57562;BME280;43397;51.530;5.974;2022-08-03T07:18:41;101180.28;;;22.37;87.17
57562;BME280;43397;51.530;5.974;2022-08-03T07:21:07;101181.63;;;22.46;86.20
57562;BME280;43397;51.530;5.974;2022-08-03T07:23:33;101187.03;;;22.46;86.74
57562;BME280;43397;51.530;5.974;2022-08-03T07:25:59;101188.72;;;22.48;85.28
57562;BME280;43397;51.530;5.974;2022-08-03T07:28:26;101185.28;;;22.45;85.94
57562;BME280;43397;51.530;5.974;2022-08-03T07:30:52;101193.00;;;22.52;85.21
57562;BME280;43397;51.530;5.974;2022-08-03T07:33:17;101190.78;;;22.61;84.81
57562;BME280;43397;51.530;5.974;2022-08-03T07:35:43;101187.03;;;22.63;84.57
57562;BME280;43397;51.530;5.974;2022-08-03T07:38:09;101192.28;;;22.66;85.93
57562;BME280;43397;51.530;5.974;2022-08-03T07:40:35;101174.56;;;22.76;84.77
57562;BME280;43397;51.530;5.974;2022-08-03T07:43:01;101187.50;;;22.71;85.38
57562;BME280;43397;51.530;5.974;2022-08-03T07:45:29;101186.28;;;22.77;84.31
57562;BME280;43397;51.530;5.974;2022-08-03T07:47:54;101175.44;;;22.77;83.47
57562;BME280;43397;51.530;5.974;2022-08-03T07:50:20;101191.22;;;22.69;82.63
57562;BME280;43397;51.530;5.974;2022-08-03T07:52:46;101179.91;;;22.78;82.52
57562;BME280;43397;51.530;5.974;2022-08-03T07:55:12;101179.66;;;22.83;83.76
57562;BME280;43397;51.530;5.974;2022-08-03T07:57:38;101186.50;;;22.90;81.79
57562;BME280;43397;51.530;5.974;2022-08-03T08:00:06;101187.09;;;22.95;82.25
57562;BME280;43397;51.530;5.974;2022-08-03T08:02:34;101182.88;;;23.07;79.74
57562;BME280;43397;51.530;5.974;2022-08-03T08:05:00;101181.84;;;23.09;80.38
57562;BME280;43397;51.530;5.974;2022-08-03T08:07:26;101188.66;;;23.16;80.86
57562;BME280;43397;51.530;5.974;2022-08-03T08:09:51;101190.63;;;23.30;78.63
57562;BME280;43397;51.530;5.974;2022-08-03T08:12:17;101188.06;;;23.27;79.23
57562;BME280;43397;51.530;5.974;2022-08-03T08:14:43;101190.34;;;23.51;78.54
57562;BME280;43397;51.530;5.974;2022-08-03T08:17:09;101189.31;;;23.69;78.34
57562;BME280;43397;51.530;5.974;2022-08-03T08:19:36;101171.09;;;23.87;77.71
57562;BME280;43397;51.530;5.974;2022-08-03T08:22:02;101183.53;;;23.91;78.70
57562;BME280;43397;51.530;5.974;2022-08-03T08:24:28;101177.41;;;23.88;75.17
57562;BME280;43397;51.530;5.974;2022-08-03T08:26:54;101181.94;;;23.71;76.15
57562;BME280;43397;51.530;5.974;2022-08-03T08:29:19;101189.75;;;23.77;76.43
57562;BME280;43397;51.530;5.974;2022-08-03T08:31:45;101178.69;;;23.96;75.30
57562;BME280;43397;51.530;5.974;2022-08-03T08:34:11;101183.34;;;23.94;74.81
57562;BME280;43397;51.530;5.974;2022-08-03T08:36:38;101176.97;;;23.95;75.66
57562;BME280;43397;51.530;5.974;2022-08-03T08:39:04;101173.63;;;24.20;76.40
57562;BME280;43397;51.530;5.974;2022-08-03T08:41:30;101180.84;;;24.21;74.76
57562;BME280;43397;51.530;5.974;2022-08-03T08:43:56;101182.06;;;24.46;74.32
57562;BME280;43397;51.530;5.974;2022-08-03T08:46:22;101180.06;;;24.64;73.34
57562;BME280;43397;51.530;5.974;2022-08-03T08:48:50;101181.16;;;25.04;79.08
57562;BME280;43397;51.530;5.974;2022-08-03T08:51:18;101180.47;;;25.30;78.32
57562;BME280;43397;51.530;5.974;2022-08-03T08:53:50;101182.00;;;25.48;72.22
57562;BME280;43397;51.530;5.974;2022-08-03T08:56:17;101183.75;;;25.49;71.08
57562;BME280;43397;51.530;5.974;2022-08-03T08:58:47;101182.78;;;25.50;69.75
57562;BME280;43397;51.530;5.974;2022-08-03T09:01:17;101187.56;;;25.74;69.51
57562;BME280;43397;51.530;5.974;2022-08-03T09:03:42;101182.78;;;25.92;74.48
57562;BME280;43397;51.530;5.974;2022-08-03T09:06:08;101191.09;;;26.03;68.19
57562;BME280;43397;51.530;5.974;2022-08-03T09:08:34;101169.06;;;26.06;68.11
57562;BME280;43397;51.530;5.974;2022-08-03T09:11:02;101173.38;;;26.23;66.80
57562;BME280;43397;51.530;5.974;2022-08-03T09:13:27;101180.28;;;26.41;67.61
57562;BME280;43397;51.530;5.974;2022-08-03T09:16:09;101169.53;;;26.13;64.37
57562;BME280;43397;51.530;5.974;2022-08-03T09:18:35;101181.00;;;25.91;65.47
57562;BME280;43397;51.530;5.974;2022-08-03T09:21:15;101189.22;;;26.31;66.46
57562;BME280;43397;51.530;5.974;2022-08-03T09:23:45;101177.56;;;26.41;63.07
57562;BME280;43397;51.530;5.974;2022-08-03T09:26:19;101172.78;;;26.58;63.54
57562;BME280;43397;51.530;5.974;2022-08-03T09:28:45;101175.72;;;26.55;63.73
57562;BME280;43397;51.530;5.974;2022-08-03T09:31:11;101170.25;;;26.42;63.12
57562;BME280;43397;51.530;5.974;2022-08-03T09:33:45;101172.38;;;26.90;63.22
57562;BME280;43397;51.530;5.974;2022-08-03T09:36:32;101173.97;;;27.18;61.02
57562;BME280;43397;51.530;5.974;2022-08-03T09:39:00;101173.94;;;27.31;59.61
57562;BME280;43397;51.530;5.974;2022-08-03T09:41:27;101177.16;;;27.24;60.80
57562;BME280;43397;51.530;5.974;2022-08-03T09:43:53;101178.09;;;27.36;60.00
57562;BME280;43397;51.530;5.974;2022-08-03T09:46:19;101177.25;;;27.60;60.46
57562;BME280;43397;51.530;5.974;2022-08-03T09:48:45;101171.28;;;27.55;57.65
57562;BME280;43397;51.530;5.974;2022-08-03T09:51:11;101178.00;;;27.62;56.92
57562;BME280;43397;51.530;5.974;2022-08-03T09:53:41;101180.19;;;27.57;56.96
57562;BME280;43397;51.530;5.974;2022-08-03T09:56:07;101173.56;;;27.48;57.26
57562;BME280;43397;51.530;5.974;2022-08-03T09:58:44;101179.69;;;27.76;57.98
57562;BME280;43397;51.530;5.974;2022-08-03T10:01:09;101188.06;;;27.61;57.77
57562;BME280;43397;51.530;5.974;2022-08-03T10:03:37;101177.59;;;27.92;54.35
57562;BME280;43397;51.530;5.974;2022-08-03T10:06:13;101181.97;;;28.06;54.22
57562;BME280;43397;51.530;5.974;2022-08-03T10:08:39;101179.00;;;28.09;55.15
57562;BME280;43397;51.530;5.974;2022-08-03T10:11:05;101168.00;;;28.22;52.81
57562;BME280;43397;51.530;5.974;2022-08-03T10:13:31;101177.19;;;28.21;52.80
57562;BME280;43397;51.530;5.974;2022-08-03T10:15:59;101179.44;;;28.16;52.96
57562;BME280;43397;51.530;5.974;2022-08-03T10:18:25;101166.53;;;27.94;52.47
57562;BME280;43397;51.530;5.974;2022-08-03T10:20:52;101153.97;;;28.26;52.24
57562;BME280;43397;51.530;5.974;2022-08-03T10:23:20;101166.91;;;28.71;50.25
57562;BME280;43397;51.530;5.974;2022-08-03T10:25:48;101166.03;;;28.82;50.66
57562;BME280;43397;51.530;5.974;2022-08-03T10:28:17;101163.06;;;28.96;51.58
57562;BME280;43397;51.530;5.974;2022-08-03T10:30:47;101168.53;;;28.96;50.02
57562;BME280;43397;51.530;5.974;2022-08-03T10:33:17;101159.22;;;28.99;50.13
57562;BME280;43397;51.530;5.974;2022-08-03T10:35:45;101157.47;;;29.31;51.38
57562;BME280;43397;51.530;5.974;2022-08-03T10:38:15;101154.97;;;29.28;48.10
57562;BME280;43397;51.530;5.974;2022-08-03T10:40:43;101150.84;;;29.45;47.66
57562;BME280;43397;51.530;5.974;2022-08-03T10:43:17;101157.78;;;29.61;48.94
57562;BME280;43397;51.530;5.974;2022-08-03T10:45:44;101146.06;;;29.70;46.62
57562;BME280;43397;51.530;5.974;2022-08-03T10:48:10;101147.47;;;29.53;47.14
57562;BME280;43397;51.530;5.974;2022-08-03T10:50:38;101148.88;;;29.91;47.15
57562;BME280;43397;51.530;5.974;2022-08-03T10:53:05;101148.28;;;30.08;50.25
57562;BME280;43397;51.530;5.974;2022-08-03T10:55:33;101147.19;;;30.32;47.08
57562;BME280;43397;51.530;5.974;2022-08-03T10:57:59;101133.13;;;30.25;46.27
57562;BME280;43397;51.530;5.974;2022-08-03T11:00:26;101142.63;;;30.21;45.43
57562;BME280;43397;51.530;5.974;2022-08-03T11:03:07;101138.56;;;30.37;46.86
57562;BME280;43397;51.530;5.974;2022-08-03T11:05:36;101131.41;;;30.66;49.02
57562;BME280;43397;51.530;5.974;2022-08-03T11:08:33;101134.22;;;30.34;46.07
57562;BME280;43397;51.530;5.974;2022-08-03T11:11:01;101128.56;;;30.57;45.07
57562;BME280;43397;51.530;5.974;2022-08-03T11:13:29;101117.94;;;30.63;44.86
57562;BME280;43397;51.530;5.974;2022-08-03T11:15:56;101131.53;;;30.86;45.82
57562;BME280;43397;51.530;5.974;2022-08-03T11:18:23;101124.72;;;31.21;48.14
57562;BME280;43397;51.530;5.974;2022-08-03T11:20:50;101128.78;;;31.36;44.26
57562;BME280;43397;51.530;5.974;2022-08-03T11:23:18;101117.47;;;31.20;45.90
57562;BME280;43397;51.530;5.974;2022-08-03T11:26:08;101115.78;;;31.38;43.89
57562;BME280;43397;51.530;5.974;2022-08-03T11:28:34;101122.94;;;31.60;49.22
57562;BME280;43397;51.530;5.974;2022-08-03T11:34:03;101119.47;;;31.58;42.99
57562;BME280;43397;51.530;5.974;2022-08-03T11:36:29;101130.22;;;31.30;42.09
57562;BME280;43397;51.530;5.974;2022-08-03T11:39:13;101124.50;;;31.53;42.45
57562;BME280;43397;51.530;5.974;2022-08-03T11:41:41;101120.63;;;31.85;44.08
57562;BME280;43397;51.530;5.974;2022-08-03T11:44:07;101115.84;;;31.58;41.54
57562;BME280;43397;51.530;5.974;2022-08-03T11:46:36;101126.25;;;31.73;43.48
57562;BME280;43397;51.530;5.974;2022-08-03T11:49:04;101108.75;;;31.74;41.49
57562;BME280;43397;51.530;5.974;2022-08-03T11:51:30;101114.81;;;31.88;41.35
57562;BME280;43397;51.530;5.974;2022-08-03T11:53:58;101112.81;;;32.09;41.88
57562;BME280;43397;51.530;5.974;2022-08-03T11:56:25;101114.22;;;32.33;40.90
57562;BME280;43397;51.530;5.974;2022-08-03T11:58:54;101102.75;;;32.67;40.84
57562;BME280;43397;51.530;5.974;2022-08-03T12:01:20;101112.38;;;32.81;40.58
57562;BME280;43397;51.530;5.974;2022-08-03T12:03:47;101108.56;;;32.91;40.10
57562;BME280;43397;51.530;5.974;2022-08-03T12:06:14;101106.31;;;33.05;37.35
57562;BME280;43397;51.530;5.974;2022-08-03T12:08:41;101118.47;;;32.74;37.54
57562;BME280;43397;51.530;5.974;2022-08-03T12:11:09;101105.22;;;32.60;37.36
57562;BME280;43397;51.530;5.974;2022-08-03T12:13:37;101108.50;;;33.01;36.16
57562;BME280;43397;51.530;5.974;2022-08-03T12:16:05;101112.13;;;32.74;37.81
57562;BME280;43397;51.530;5.974;2022-08-03T12:18:32;101116.00;;;32.81;37.06
57562;BME280;43397;51.530;5.974;2022-08-03T12:21:04;101120.88;;;32.97;37.13
57562;BME280;43397;51.530;5.974;2022-08-03T12:23:30;101114.03;;;33.29;40.87
57562;BME280;43397;51.530;5.974;2022-08-03T12:26:00;101113.47;;;33.71;37.88
57562;BME280;43397;51.530;5.974;2022-08-03T12:28:26;101113.31;;;33.90;38.47
57562;BME280;43397;51.530;5.974;2022-08-03T12:30:52;101112.59;;;33.88;37.95
57562;BME280;43397;51.530;5.974;2022-08-03T12:33:22;101119.06;;;33.79;36.81
57562;BME280;43397;51.530;5.974;2022-08-03T12:35:50;101112.69;;;33.96;37.95
57562;BME280;43397;51.530;5.974;2022-08-03T12:38:26;101109.31;;;33.85;38.38
57562;BME280;43397;51.530;5.974;2022-08-03T12:40:57;101113.03;;;34.37;37.48
57562;BME280;43397;51.530;5.974;2022-08-03T12:43:23;101116.66;;;34.38;38.40
57562;BME280;43397;51.530;5.974;2022-08-03T12:45:49;101113.25;;;34.44;36.83
57562;BME280;43397;51.530;5.974;2022-08-03T12:48:15;101112.59;;;34.50;36.40
57562;BME280;43397;51.530;5.974;2022-08-03T12:50:42;101117.84;;;34.61;38.43